Aviation Digital Data Service (ADDS)

Output produced by METARs form (1740 UTC 21 April 2018)
found at http://aviationweather.gov/adds/metars/
 
LHBP 211730Z 16004KT CAVOK 22/07 Q1017 NOSIG
LHBP 211700Z 19006KT CAVOK 23/07 Q1017 NOSIG
LHBP 211630Z 20008KT 180V240 CAVOK 24/06 Q1017 NOSIG
LHBP 211600Z 21007KT CAVOK 25/06 Q1017 NOSIG
LHBP 211530Z 19008KT 150V220 CAVOK 25/06 Q1018 NOSIG
LHBP 211500Z 22008KT 190V250 CAVOK 25/06 Q1018 NOSIG
LHBP 211430Z 19008KT 150V230 CAVOK 25/07 Q1018 NOSIG
LHBP 211400Z 20008KT 160V250 CAVOK 25/07 Q1019 NOSIG
LHBP 211330Z 19008KT 130V230 CAVOK 25/06 Q1019 NOSIG
LHBP 211300Z 21009KT CAVOK 24/06 Q1019 NOSIG
LHBP 211230Z 19008KT 150V210 CAVOK 24/07 Q1020 NOSIG
LHBP 211200Z 18007KT 140V210 CAVOK 24/06 Q1020 NOSIG